CheckWX is a tool to help pilots better visualize weather data.  It is not intended as a substitute for an official pre-flight weather briefing.

07:15:53 UTC

KCAK TAF
Akron-Canton Regional Airport
Akron, Ohio, USA
KCAK 180537Z 1806/1906 06006KT P6SM SKC FM181300 11007KT P6SM SKC

Sep-18@
06:00 UTC

Sep-18 @ 06:00 UTC

Sep-18@
13:00 UTC

Sep-18 @ 13:00 UTC

KCAK 180537Z 1806/1906 06006KT P6SM SKC
Wind
  • 060° at 6 KTS
Cloud Levels
  • Clear skies

Sep-18@
13:00 UTC

Sep-18 @ 13:00 UTC

Sep-19@
06:00 UTC

Sep-19 @ 06:00 UTC

FM181300 11007KT P6SM SKC

From

From Standard forecast or significant change

Wind
  • 110° at 7 KTS
Cloud Levels
  • Clear skies